Time;durP1;ratioP1;P1;durP2;ratioP2;P2;SDS_P1;SDS_P2;PMS_P1;PMS_P2;Temp;Humidity;BMP_temperature;BMP_pressure;BME280_temperature;BME280_humidity;BME280_pressure;Samples;Min_cycle;Max_cycle;Signal;HPM_P1;HPM_P2
2023/03/17 00:00:15;;;;;;;4.97;3.90;;;7.80;1.00;;;;;;5038603;28;20409;-45
2023/03/17 00:02:41;;;;;;;4.33;3.83;;;7.80;1.00;;;;;;5039749;28;20788;-46
2023/03/17 00:05:23;;;;;;;5.53;4.47;;;7.80;1.00;;;;;;5037154;28;20459;-45
2023/03/17 00:07:51;;;;;;;4.20;3.60;;;7.70;1.00;;;;;;5038438;28;20519;-45
2023/03/17 00:10:20;;;;;;;3.87;3.47;;;7.70;1.00;;;;;;5038862;28;20433;-44
2023/03/17 00:12:48;;;;;;;4.93;4.03;;;7.60;1.00;;;;;;5037571;28;20473;-45
2023/03/17 00:15:14;;;;;;;5.10;4.60;;;7.60;1.00;;;;;;5036981;28;20417;-45
2023/03/17 00:17:41;;;;;;;4.53;3.60;;;7.60;1.00;;;;;;5019363;28;20523;-45
2023/03/17 00:20:13;;;;;;;6.23;4.30;;;7.60;1.00;;;;;;5037221;28;20492;-44
2023/03/17 00:22:39;;;;;;;4.50;3.70;;;7.50;1.00;;;;;;5037374;28;20912;-44
2023/03/17 00:25:24;;;;;;;4.10;3.70;;;7.50;1.00;;;;;;5038412;28;20527;-44
2023/03/17 00:27:50;;;;;;;3.97;3.63;;;7.50;1.00;;;;;;5038354;28;20435;-44
2023/03/17 00:30:16;;;;;;;4.73;4.23;;;7.50;1.00;;;;;;5039197;28;20409;-46
2023/03/17 00:32:44;;;;;;;5.70;4.23;;;7.50;1.00;;;;;;5038360;28;20535;-45
2023/03/17 00:35:27;;;;;;;4.57;3.57;;;7.50;1.00;;;;;;5038675;28;20421;-43
2023/03/17 00:37:55;;;;;;;4.20;3.47;;;7.50;1.00;;;;;;5037600;28;20421;-47
2023/03/17 00:40:29;;;;;;;4.67;3.47;;;7.50;1.00;;;;;;5038653;28;20421;-47
2023/03/17 00:42:57;;;;;;;4.73;4.30;;;7.50;1.00;;;;;;5018618;28;20418;-46
2023/03/17 00:45:24;;;;;;;5.70;4.20;;;7.50;1.00;;;;;;5026418;28;20422;-44
2023/03/17 00:47:52;;;;;;;4.50;4.00;;;7.50;1.00;;;;;;5039549;28;20421;-46
2023/03/17 00:50:23;;;;;;;5.23;4.00;;;7.40;1.00;;;;;;5038258;28;20424;-45
2023/03/17 00:52:51;;;;;;;4.23;3.70;;;7.40;1.00;;;;;;5038478;28;20598;-46
2023/03/17 00:55:18;;;;;;;4.33;3.70;;;7.40;1.00;;;;;;5036782;28;20425;-45
2023/03/17 00:57:46;;;;;;;4.70;3.63;;;7.40;1.00;;;;;;5038836;28;20417;-44
2023/03/17 01:00:25;;;;;;;4.70;4.30;;;7.40;1.00;;;;;;5038651;28;20504;-46
2023/03/17 01:02:52;;;;;;;4.53;4.13;;;7.40;1.00;;;;;;5038464;28;20435;-46
2023/03/17 01:05:19;;;;;;;4.77;4.37;;;7.40;1.00;;;;;;5037451;28;20441;-46
2023/03/17 01:07:51;;;;;;;6.70;4.30;;;7.40;1.00;;;;;;5037215;28;20433;-48
2023/03/17 01:10:24;;;;;;;4.87;4.37;;;7.50;1.00;;;;;;5038078;28;20401;-44
2023/03/17 01:12:51;;;;;;;4.30;3.90;;;7.40;1.00;;;;;;5038199;28;20560;-46
2023/03/17 01:15:17;;;;;;;5.30;4.80;;;7.50;1.00;;;;;;5038026;28;20463;-47
2023/03/17 01:17:43;;;;;;;6.07;4.40;;;7.40;1.00;;;;;;5037531;28;20410;-45
2023/03/17 01:20:20;;;;;;;5.00;4.50;;;7.50;1.00;;;;;;5038063;28;20420;-45
2023/03/17 01:22:46;;;;;;;4.40;4.00;;;7.50;1.00;;;;;;5035918;28;20668;-46
2023/03/17 01:25:13;;;;;;;6.33;3.70;;;7.50;1.00;;;;;;5037315;28;20413;-46
2023/03/17 01:27:40;;;;;;;4.67;4.00;;;7.50;1.00;;;;;;5038269;28;20807;-45
2023/03/17 01:30:08;;;;;;;4.90;4.47;;;7.40;1.00;;;;;;5037547;28;20405;-43
2023/03/17 01:32:33;;;;;;;4.67;4.17;;;7.50;1.00;;;;;;5036825;28;20551;-45
2023/03/17 01:34:59;;;;;;;5.17;4.63;;;7.40;1.00;;;;;;5036894;28;20417;-45
2023/03/17 01:37:25;;;;;;;4.23;3.73;;;7.40;1.00;;;;;;5037399;28;20213;-44
2023/03/17 01:39:51;;;;;;;4.90;4.50;;;7.40;1.00;;;;;;5037096;28;20174;-48
2023/03/17 01:42:17;;;;;;;4.90;4.40;;;7.50;1.00;;;;;;5036890;28;20435;-44
2023/03/17 01:45:34;;;;;;;5.03;4.50;;;7.50;1.00;;;;;;5037474;28;20175;-46
2023/03/17 01:47:59;;;;;;;5.77;4.43;;;7.50;1.00;;;;;;5020086;28;20429;-46
2023/03/17 01:50:25;;;;;;;5.37;4.57;;;7.50;1.00;;;;;;5037729;28;20532;-45
2023/03/17 01:52:51;;;;;;;6.37;3.97;;;7.50;1.00;;;;;;5037296;28;20203;-43
2023/03/17 01:55:17;;;;;;;4.70;3.80;;;7.50;1.00;;;;;;5036267;28;20269;-49
2023/03/17 01:57:55;;;;;;;5.47;4.67;;;7.50;1.00;;;;;;5036440;28;20505;-46
2023/03/17 02:00:22;;;;;;;4.10;3.70;;;7.50;1.00;;;;;;5036929;28;20167;-46
2023/03/17 02:02:54;;;;;;;4.87;4.30;;;7.50;1.00;;;;;;5036040;28;20432;-47
2023/03/17 02:05:29;;;;;;;4.03;3.73;;;7.50;1.00;;;;;;5034459;28;20831;-45
2023/03/17 02:07:56;;;;;;;4.30;3.80;;;7.50;1.00;;;;;;5036784;28;20502;-45
2023/03/17 02:10:24;;;;;;;4.13;3.60;;;7.50;1.00;;;;;;5036758;28;20448;-44
2023/03/17 02:12:54;;;;;;;4.70;4.10;;;7.50;1.00;;;;;;5035473;28;20464;-46
2023/03/17 02:15:20;;;;;;;4.20;3.63;;;7.50;1.00;;;;;;5035938;28;20445;-44
2023/03/17 02:17:46;;;;;;;4.33;3.93;;;7.50;1.00;;;;;;5036720;28;20436;-46
2023/03/17 02:20:14;;;;;;;5.07;3.70;;;7.50;1.00;;;;;;5037026;28;20406;-44
2023/03/17 02:22:42;;;;;;;3.97;3.40;;;7.50;1.00;;;;;;5037497;28;20449;-44
2023/03/17 02:25:08;;;;;;;3.63;3.33;;;7.50;1.00;;;;;;5036707;28;20818;-43
2023/03/17 02:27:38;;;;;;;3.50;3.20;;;7.50;1.00;;;;;;5035206;28;20731;-44
2023/03/17 02:30:05;;;;;;;5.07;3.50;;;7.50;1.00;;;;;;5034351;28;20409;-46
2023/03/17 02:32:35;;;;;;;3.60;3.20;;;7.40;1.00;;;;;;5036130;28;20925;-44
2023/03/17 02:35:01;;;;;;;4.03;3.20;;;7.40;1.00;;;;;;5036428;28;20448;-45
2023/03/17 02:37:27;;;;;;;4.43;3.10;;;7.50;1.00;;;;;;5035768;28;20429;-44
2023/03/17 02:39:52;;;;;;;6.53;3.67;;;7.40;1.00;;;;;;5036601;28;20412;-44
2023/03/17 02:42:18;;;;;;;3.90;3.53;;;7.40;1.00;;;;;;5036525;28;20437;-45
2023/03/17 02:44:44;;;;;;;3.93;3.40;;;7.40;1.00;;;;;;5036222;28;20240;-45
2023/03/17 02:47:11;;;;;;;4.70;3.47;;;7.40;1.00;;;;;;5036404;28;20568;-46
2023/03/17 02:49:38;;;;;;;6.97;4.67;;;7.40;1.00;;;;;;5036653;28;20184;-44
2023/03/17 02:52:04;;;;;;;5.43;3.40;;;7.40;1.00;;;;;;5035906;28;20966;-47
2023/03/17 02:54:30;;;;;;;3.70;3.40;;;7.40;1.00;;;;;;5034362;28;20441;-43
2023/03/17 02:57:30;;;;;;;3.87;3.57;;;7.40;1.00;;;;;;5035669;28;20677;-44
2023/03/17 02:59:56;;;;;;;3.23;2.93;;;7.40;1.00;;;;;;5036293;28;20607;-44
2023/03/17 03:02:21;;;;;;;4.63;3.40;;;7.40;1.00;;;;;;5035678;28;20797;-47
2023/03/17 03:04:47;;;;;;;3.90;3.50;;;7.30;1.00;;;;;;5036013;28;20501;-43
2023/03/17 03:07:13;;;;;;;4.00;3.60;;;7.40;1.00;;;;;;5035414;28;20206;-45
2023/03/17 03:09:38;;;;;;;3.47;3.10;;;7.40;1.00;;;;;;5035174;28;20179;-44
2023/03/17 03:12:08;;;;;;;4.83;3.70;;;7.40;1.00;;;;;;5036063;28;20241;-43
2023/03/17 03:14:33;;;;;;;3.43;3.13;;;7.40;1.00;;;;;;5036281;28;20265;-43
2023/03/17 03:16:59;;;;;;;5.83;3.50;;;7.40;1.00;;;;;;5034756;28;20521;-44
2023/03/17 03:19:24;;;;;;;4.97;3.53;;;7.40;1.00;;;;;;5035584;28;20190;-44
2023/03/17 03:21:50;;;;;;;3.67;3.30;;;7.40;1.00;;;;;;5035622;28;20222;-44
2023/03/17 03:24:16;;;;;;;3.83;3.20;;;7.40;1.00;;;;;;5034881;28;20212;-44
2023/03/17 03:26:41;;;;;;;4.10;3.47;;;7.40;1.00;;;;;;5036233;28;20210;-45
2023/03/17 03:29:07;;;;;;;4.30;3.20;;;7.40;1.00;;;;;;5036243;28;20194;-43
2023/03/17 03:31:33;;;;;;;3.30;3.00;;;7.40;1.00;;;;;;5035878;28;20520;-47
2023/03/17 03:33:59;;;;;;;4.73;3.80;;;7.40;1.00;;;;;;5036435;28;20425;-44
2023/03/17 03:36:25;;;;;;;4.23;3.13;;;7.40;1.00;;;;;;5035720;28;20656;-43
2023/03/17 03:38:52;;;;;;;3.80;3.47;;;7.30;1.00;;;;;;5035633;28;20424;-44
2023/03/17 03:41:18;;;;;;;3.93;3.40;;;7.30;1.00;;;;;;5035450;28;20527;-43
2023/03/17 03:43:44;;;;;;;4.93;3.67;;;7.30;1.00;;;;;;5036014;28;20417;-45
2023/03/17 03:46:10;;;;;;;3.90;3.33;;;7.30;1.00;;;;;;5035309;28;20348;-44
2023/03/17 03:48:35;;;;;;;4.90;3.70;;;7.20;1.00;;;;;;5035904;28;20179;-46
2023/03/17 03:51:02;;;;;;;3.97;3.17;;;7.20;1.00;;;;;;5034688;28;20487;-46
2023/03/17 03:53:28;;;;;;;3.80;3.10;;;7.20;1.00;;;;;;5035934;28;20316;-46
2023/03/17 03:55:54;;;;;;;3.50;3.20;;;7.10;1.00;;;;;;5033721;28;20425;-43
2023/03/17 03:58:20;;;;;;;5.67;3.33;;;7.10;1.00;;;;;;5034872;28;20413;-43
2023/03/17 04:00:46;;;;;;;3.20;2.90;;;7.10;1.00;;;;;;5034051;28;20421;-44
2023/03/17 04:03:13;;;;;;;3.70;3.03;;;7.10;1.00;;;;;;5035364;28;20415;-45
2023/03/17 04:05:39;;;;;;;3.50;3.20;;;7.00;1.00;;;;;;5035097;28;20672;-45
2023/03/17 04:08:05;;;;;;;3.50;3.10;;;7.00;1.00;;;;;;5034979;28;20409;-43
2023/03/17 04:10:31;;;;;;;4.50;3.30;;;7.00;1.00;;;;;;5035801;28;20696;-47
2023/03/17 04:12:57;;;;;;;3.80;3.00;;;7.00;1.00;;;;;;5035475;28;20461;-44
2023/03/17 04:15:23;;;;;;;4.30;2.73;;;6.90;1.00;;;;;;5035716;28;20474;-44
2023/03/17 04:17:49;;;;;;;3.40;2.83;;;6.90;1.00;;;;;;5036398;28;20466;-48
2023/03/17 04:20:15;;;;;;;3.40;2.83;;;6.90;1.00;;;;;;5037825;28;20549;-44
2023/03/17 04:22:42;;;;;;;3.20;2.80;;;6.90;1.00;;;;;;5038946;28;20185;-46
2023/03/17 04:25:09;;;;;;;3.00;2.70;;;6.90;1.00;;;;;;5037798;28;20486;-45
2023/03/17 04:27:35;;;;;;;3.77;2.90;;;6.90;1.00;;;;;;5039149;28;20421;-45
2023/03/17 04:30:01;;;;;;;3.67;2.73;;;6.80;1.00;;;;;;5037961;28;20448;-45
2023/03/17 04:32:27;;;;;;;2.77;2.47;;;6.80;1.00;;;;;;5038642;28;20504;-46
2023/03/17 04:34:52;;;;;;;3.57;2.77;;;6.80;1.00;;;;;;5038947;28;20426;-43
2023/03/17 04:37:18;;;;;;;4.43;3.20;;;6.80;1.00;;;;;;5036745;28;20181;-44
2023/03/17 04:39:44;;;;;;;3.10;2.80;;;6.80;1.00;;;;;;5037381;28;20181;-43
2023/03/17 04:42:10;;;;;;;3.83;2.80;;;6.70;1.00;;;;;;5034730;28;20240;-45
2023/03/17 04:44:36;;;;;;;5.07;2.93;;;6.70;1.00;;;;;;5035529;28;20775;-46
2023/03/17 04:47:01;;;;;;;2.93;2.63;;;6.70;1.00;;;;;;5036581;28;20425;-44
2023/03/17 04:49:27;;;;;;;3.23;2.93;;;6.70;1.00;;;;;;5037670;28;20401;-45
2023/03/17 04:51:53;;;;;;;3.80;3.20;;;6.70;1.00;;;;;;5036519;28;20214;-43
2023/03/17 04:54:20;;;;;;;3.87;2.70;;;6.70;1.00;;;;;;5038050;28;20185;-46
2023/03/17 04:56:45;;;;;;;4.00;2.90;;;6.70;1.00;;;;;;5036978;28;20509;-45
2023/03/17 04:59:11;;;;;;;4.03;3.00;;;6.70;1.00;;;;;;5037339;28;20500;-44
2023/03/17 05:01:37;;;;;;;3.23;2.93;;;6.70;1.00;;;;;;5037646;28;20174;-44
2023/03/17 05:04:03;;;;;;;3.23;2.93;;;6.70;1.00;;;;;;5037676;28;20554;-44
2023/03/17 05:06:29;;;;;;;3.03;2.50;;;6.60;1.00;;;;;;5037728;28;20181;-47
2023/03/17 05:08:54;;;;;;;4.90;3.20;;;6.60;1.00;;;;;;5037734;28;20783;-43
2023/03/17 05:11:20;;;;;;;3.90;2.90;;;6.60;1.00;;;;;;5036232;28;20198;-45
2023/03/17 05:13:46;;;;;;;3.10;2.73;;;6.60;1.00;;;;;;5036487;28;20175;-44
2023/03/17 05:16:12;;;;;;;4.10;3.57;;;6.60;1.00;;;;;;5035710;28;20350;-45
2023/03/17 05:18:37;;;;;;;3.50;2.83;;;6.50;1.00;;;;;;5034499;28;20261;-45
2023/03/17 05:21:05;;;;;;;3.23;2.90;;;6.50;1.00;;;;;;5035639;28;20183;-44
2023/03/17 05:23:31;;;;;;;3.00;2.60;;;6.50;1.00;;;;;;5033765;28;20190;-45
2023/03/17 05:25:57;;;;;;;4.17;3.20;;;6.50;1.00;;;;;;5034413;28;20421;-45
2023/03/17 05:28:23;;;;;;;3.67;3.30;;;6.40;1.00;;;;;;5035718;28;20424;-45
2023/03/17 05:30:49;;;;;;;4.90;3.97;;;6.40;1.00;;;;;;5034861;28;20433;-45
2023/03/17 05:33:15;;;;;;;5.03;3.07;;;6.40;1.00;;;;;;5036252;28;20484;-47
2023/03/17 05:35:41;;;;;;;3.93;3.40;;;6.30;1.00;;;;;;5035769;28;20429;-45
2023/03/17 05:38:07;;;;;;;3.93;3.53;;;6.30;1.00;;;;;;5036481;28;20210;-43
2023/03/17 05:40:34;;;;;;;3.60;3.20;;;6.30;1.00;;;;;;5034384;28;20477;-44
2023/03/17 05:43:00;;;;;;;4.00;3.60;;;6.30;1.00;;;;;;5035138;28;20578;-45
2023/03/17 05:45:27;;;;;;;3.20;2.90;;;6.30;1.00;;;;;;5034586;28;20424;-43
2023/03/17 05:47:52;;;;;;;2.93;2.63;;;6.20;1.00;;;;;;5034300;28;20823;-45
2023/03/17 05:50:18;;;;;;;2.90;2.60;;;6.30;1.00;;;;;;5034581;28;20615;-43
2023/03/17 05:52:44;;;;;;;3.53;3.23;;;6.30;1.00;;;;;;5034331;28;20207;-44
2023/03/17 05:55:10;;;;;;;3.53;2.50;;;6.30;1.00;;;;;;5033040;28;20815;-44
2023/03/17 05:57:36;;;;;;;4.50;4.03;;;6.40;1.00;;;;;;5031802;28;20454;-44
2023/03/17 06:00:04;;;;;;;5.80;2.93;;;6.40;1.00;;;;;;5028938;28;20485;-49
2023/03/17 06:02:29;;;;;;;2.70;2.27;;;6.50;1.00;;;;;;5033123;28;20414;-44
2023/03/17 06:04:55;;;;;;;2.90;2.60;;;6.50;1.00;;;;;;5032014;28;20441;-47
2023/03/17 06:07:21;;;;;;;3.63;2.67;;;6.60;1.00;;;;;;5033439;28;20584;-44
2023/03/17 06:09:47;;;;;;;3.67;2.70;;;6.70;1.00;;;;;;5032779;28;20417;-44
2023/03/17 06:12:12;;;;;;;2.83;2.50;;;6.80;1.00;;;;;;5030968;28;20509;-44
2023/03/17 06:14:38;;;;;;;2.50;2.30;;;6.80;1.00;;;;;;5029278;28;20179;-46
2023/03/17 06:17:04;;;;;;;3.00;2.70;;;6.90;1.00;;;;;;5028643;28;20720;-44
2023/03/17 06:19:30;;;;;;;3.20;2.43;;;7.10;1.00;;;;;;5027588;28;20178;-46
2023/03/17 06:21:56;;;;;;;3.40;2.63;;;7.20;1.00;;;;;;5027247;28;20432;-45
2023/03/17 06:24:21;;;;;;;2.90;2.60;;;7.30;1.00;;;;;;5030419;28;20430;-48
2023/03/17 06:26:47;;;;;;;2.60;2.40;;;7.40;1.00;;;;;;5027799;28;20449;-47
2023/03/17 06:29:13;;;;;;;2.60;2.40;;;7.60;1.00;;;;;;5027813;28;20584;-44
2023/03/17 06:31:39;;;;;;;3.80;2.70;;;7.60;1.00;;;;;;5026929;28;20486;-45
2023/03/17 06:34:05;;;;;;;3.20;2.37;;;7.70;1.00;;;;;;5027193;28;20190;-46
2023/03/17 06:36:32;;;;;;;3.37;2.83;;;7.80;1.00;;;;;;5027484;28;20429;-45
2023/03/17 06:38:59;;;;;;;3.73;2.90;;;8.00;1.00;;;;;;5030063;28;20913;-45
2023/03/17 06:41:25;;;;;;;4.77;3.10;;;8.30;1.00;;;;;;5029083;28;20437;-44
2023/03/17 06:43:51;;;;;;;4.07;2.93;;;8.60;1.00;;;;;;5028505;28;20414;-43
2023/03/17 06:46:17;;;;;;;4.20;3.20;;;9.00;1.00;;;;;;5030245;28;20260;-46
2023/03/17 06:48:42;;;;;;;3.00;2.70;;;9.30;1.00;;;;;;5028722;28;20452;-44
2023/03/17 06:51:08;;;;;;;3.97;3.00;;;9.70;1.00;;;;;;5028732;28;20552;-45
2023/03/17 06:53:34;;;;;;;6.30;3.23;;;10.10;1.00;;;;;;5028409;28;20186;-44
2023/03/17 06:56:00;;;;;;;5.13;3.57;;;10.40;1.00;;;;;;5031031;28;20186;-45
2023/03/17 06:58:25;;;;;;;4.03;3.50;;;10.80;1.00;;;;;;5030847;28;20421;-46
2023/03/17 07:00:52;;;;;;;4.73;3.17;;;11.20;1.00;;;;;;5031223;28;20176;-44
2023/03/17 07:03:20;;;;;;;3.30;3.00;;;11.60;1.00;;;;;;5031730;28;20441;-43
2023/03/17 07:05:46;;;;;;;4.10;3.30;;;11.90;1.00;;;;;;5029983;28;20447;-43
2023/03/17 07:08:12;;;;;;;3.23;2.93;;;12.30;1.00;;;;;;5031507;28;20449;-43
2023/03/17 07:10:42;;;;;;;3.80;2.60;;;12.60;1.00;;;;;;5030599;28;20484;-45
2023/03/17 07:13:09;;;;;;;3.30;2.73;;;12.90;1.00;;;;;;5027923;28;20245;-47
2023/03/17 07:15:36;;;;;;;2.90;2.60;;;13.30;1.00;;;;;;5028297;28;20855;-44
2023/03/17 07:18:03;;;;;;;3.40;2.70;;;13.60;1.00;;;;;;5030051;28;20576;-49
2023/03/17 07:20:29;;;;;;;3.30;2.67;;;13.80;1.00;;;;;;5030012;28;20413;-43
2023/03/17 07:22:55;;;;;;;3.03;2.43;;;14.00;1.00;;;;;;5030885;28;20855;-45
2023/03/17 07:25:21;;;;;;;2.87;2.10;;;14.10;1.00;;;;;;5031123;28;20467;-45
2023/03/17 07:27:47;;;;;;;3.30;2.80;;;14.30;1.00;;;;;;5031407;28;20507;-43
2023/03/17 07:30:14;;;;;;;4.40;2.70;;;14.60;1.00;;;;;;5031051;28;20787;-44
2023/03/17 07:32:40;;;;;;;3.53;2.60;;;14.90;1.00;;;;;;5030285;28;20485;-44
2023/03/17 07:35:06;;;;;;;3.67;3.13;;;15.10;1.00;;;;;;5032244;28;20570;-45
2023/03/17 07:37:32;;;;;;;4.50;2.50;;;15.30;1.00;;;;;;5031337;28;20429;-45
2023/03/17 07:39:58;;;;;;;2.70;2.50;;;15.60;1.00;;;;;;5028881;28;20982;-44
2023/03/17 07:42:24;;;;;;;3.30;2.40;;;16.00;1.00;;;;;;5032225;28;20190;-54
2023/03/17 07:44:50;;;;;;;3.43;2.20;;;16.50;1.00;;;;;;5031723;28;20182;-45
2023/03/17 07:47:15;;;;;;;2.83;2.53;;;17.00;1.00;;;;;;5029542;28;20178;-46
2023/03/17 07:49:42;;;;;;;2.40;2.10;;;17.40;1.00;;;;;;5031025;28;20417;-43
2023/03/17 07:52:09;;;;;;;2.20;0.80;;;17.80;1.00;;;;;;5030986;28;20572;-47
2023/03/17 07:54:35;;;;;;;1.43;0.93;;;18.90;1.00;;;;;;5035217;28;20575;-44
2023/03/17 07:57:01;;;;;;;3.63;1.40;;;20.10;1.00;;;;;;5035454;28;20524;-48
2023/03/17 07:59:27;;;;;;;3.00;1.30;;;21.10;1.00;;;;;;5035222;28;20578;-47
2023/03/17 08:01:53;;;;;;;2.47;1.50;;;21.70;1.00;;;;;;5034795;28;20429;-47
2023/03/17 08:04:19;;;;;;;2.17;1.67;;;22.10;1.00;;;;;;5033863;28;20459;-46
2023/03/17 08:06:45;;;;;;;2.90;1.80;;;22.40;1.00;;;;;;5035693;28;20171;-46
2023/03/17 08:09:12;;;;;;;2.80;1.90;;;22.70;1.00;;;;;;5036609;28;20277;-45
2023/03/17 08:11:37;;;;;;;2.30;1.60;;;23.00;1.00;;;;;;5032614;28;20476;-45
2023/03/17 08:14:04;;;;;;;2.47;1.50;;;23.00;1.00;;;;;;5034551;28;20423;-46
2023/03/17 08:16:30;;;;;;;3.40;1.70;;;23.50;1.00;;;;;;5036023;28;20424;-45
2023/03/17 08:18:59;;;;;;;2.40;1.80;;;24.10;1.00;;;;;;5035875;28;20424;-47
2023/03/17 08:21:25;;;;;;;3.07;1.80;;;24.60;1.00;;;;;;5037617;28;20425;-45
2023/03/17 08:23:54;;;;;;;2.00;1.70;;;24.70;1.00;;;;;;5035550;28;20443;-45
2023/03/17 08:26:20;;;;;;;2.30;1.90;;;24.90;1.00;;;;;;5035262;28;20208;-46
2023/03/17 08:28:47;;;;;;;3.10;1.93;;;24.90;1.00;;;;;;5035391;28;20520;-46
2023/03/17 08:31:16;;;;;;;2.70;2.10;;;24.70;1.00;;;;;;5035095;28;20492;-45
2023/03/17 08:33:49;;;;;;;3.37;2.03;;;24.50;1.00;;;;;;5032802;28;20416;-45
2023/03/17 08:36:16;;;;;;;2.13;1.70;;;24.50;1.00;;;;;;5031440;28;20499;-45
2023/03/17 08:38:43;;;;;;;2.50;2.00;;;24.40;1.00;;;;;;5034114;28;20425;-47
2023/03/17 08:41:13;;;;;;;2.70;1.73;;;24.40;1.00;;;;;;5033286;28;20592;-46
2023/03/17 08:43:40;;;;;;;1.73;1.63;;;24.30;1.00;;;;;;5034072;28;20413;-46
2023/03/17 08:46:17;;;;;;;2.40;1.93;;;24.10;1.00;;;;;;5034256;28;20440;-45
2023/03/17 08:48:44;;;;;;;1.90;1.70;;;23.90;1.00;;;;;;5035533;28;20408;-45
2023/03/17 08:51:10;;;;;;;2.10;1.90;;;24.30;1.00;;;;;;5037072;28;20424;-50
2023/03/17 08:53:36;;;;;;;3.00;2.20;;;25.30;1.00;;;;;;5038251;28;20917;-45
2023/03/17 08:56:03;;;;;;;2.20;1.97;;;26.40;1.00;;;;;;5037965;28;20429;-46
2023/03/17 08:58:29;;;;;;;2.13;1.93;;;26.50;1.00;;;;;;5036339;28;20504;-47
2023/03/17 09:00:59;;;;;;;2.77;2.00;;;26.10;1.00;;;;;;5035453;28;20524;-47
2023/03/17 09:03:25;;;;;;;2.20;1.70;;;25.90;1.00;;;;;;5034911;28;20189;-46
2023/03/17 09:05:51;;;;;;;3.00;1.80;;;25.30;1.00;;;;;;5034646;28;20391;-47
2023/03/17 09:08:16;;;;;;;1.87;1.60;;;24.90;1.00;;;;;;5034669;28;20421;-45
2023/03/17 09:10:42;;;;;;;3.57;1.90;;;24.90;1.00;;;;;;5034548;28;20425;-45
2023/03/17 09:13:09;;;;;;;2.50;1.87;;;24.80;1.00;;;;;;5035088;28;20575;-47
2023/03/17 09:15:35;;;;;;;2.50;2.07;;;25.00;1.00;;;;;;5034943;28;20428;-45
2023/03/17 09:18:02;;;;;;;3.13;2.20;;;25.40;1.00;;;;;;5034032;28;20491;-47
2023/03/17 09:20:27;;;;;;;2.83;2.17;;;26.30;1.00;;;;;;5033881;28;20524;-45
2023/03/17 09:22:53;;;;;;;2.50;1.63;;;26.90;1.00;;;;;;5035107;28;20494;-46
2023/03/17 09:25:19;;;;;;;2.73;2.00;;;27.10;1.00;;;;;;5035920;28;20257;-47
2023/03/17 09:27:45;;;;;;;2.20;2.00;;;27.10;1.00;;;;;;5000270;28;20436;-48
2023/03/17 09:30:15;;;;;;;2.37;2.00;;;26.80;1.00;;;;;;5033174;28;20434;-48
2023/03/17 09:32:41;;;;;;;3.50;1.80;;;26.70;1.00;;;;;;5033705;28;20568;-47
2023/03/17 09:35:07;;;;;;;5.80;1.97;;;27.00;1.00;;;;;;5032842;28;20803;-46
2023/03/17 09:37:33;;;;;;;3.00;1.60;;;28.00;1.00;;;;;;5035538;28;20417;-47
2023/03/17 09:40:00;;;;;;;4.50;2.00;;;29.40;1.00;;;;;;5033705;28;20445;-47
2023/03/17 09:42:46;;;;;;;2.07;1.83;;;30.60;1.00;;;;;;5032451;28;20827;-44
2023/03/17 09:45:31;;;;;;;2.90;2.57;;;31.50;1.00;;;;;;5031160;28;20406;-45
2023/03/17 09:48:18;;;;;;;3.90;2.03;;;32.20;1.00;;;;;;5032368;28;20575;-47
2023/03/17 09:50:52;;;;;;;2.37;1.97;;;32.80;1.00;;;;;;5033563;28;20823;-48
2023/03/17 09:53:32;;;;;;;4.47;2.50;;;33.20;1.00;;;;;;5033584;28;20526;-43
2023/03/17 09:56:02;;;;;;;2.73;1.90;;;33.60;1.00;;;;;;5035652;28;20478;-43
2023/03/17 09:58:30;;;;;;;2.70;1.80;;;34.10;1.00;;;;;;5034865;28;20754;-45
2023/03/17 10:00:57;;;;;;;3.03;2.00;;;34.60;1.00;;;;;;5034550;28;20421;-46
2023/03/17 10:03:24;;;;;;;3.63;1.57;;;35.00;1.00;;;;;;5032031;28;20392;-44
2023/03/17 10:05:49;;;;;;;2.30;1.50;;;35.40;1.00;;;;;;5031568;28;20760;-46
2023/03/17 10:08:21;;;;;;;2.80;1.90;;;35.90;1.00;;;;;;5033111;28;20494;-47
2023/03/17 10:11:05;;;;;;;3.63;1.60;;;36.40;1.00;;;;;;5033335;28;20663;-46
2023/03/17 10:13:49;;;;;;;2.77;1.60;;;36.90;1.00;;;;;;5032364;28;20885;-44
2023/03/17 10:16:19;;;;;;;2.77;2.23;;;37.00;1.00;;;;;;5033421;28;20441;-45
2023/03/17 10:18:55;;;;;;;2.27;1.30;;;37.10;1.00;;;;;;5033273;28;20413;-44
2023/03/17 10:21:32;;;;;;;1.80;1.50;;;36.70;1.00;;;;;;5031623;28;20425;-44
2023/03/17 10:23:59;;;;;;;1.87;1.60;;;36.40;1.00;;;;;;5032101;28;20451;-45
2023/03/17 10:26:39;;;;;;;3.37;1.73;;;36.50;1.00;;;;;;5033477;28;20824;-43
2023/03/17 10:29:14;;;;;;;2.63;1.70;;;36.30;1.00;;;;;;5034246;28;20463;-44
2023/03/17 10:31:39;;;;;;;5.10;1.87;;;35.80;1.00;;;;;;5015201;28;20492;-43
2023/03/17 10:34:19;;;;;;;1.80;1.50;;;35.70;1.00;;;;;;5033447;28;20413;-44
2023/03/17 10:36:50;;;;;;;2.40;1.50;;;36.10;1.00;;;;;;5033295;28;20180;-48
2023/03/17 10:39:22;;;;;;;1.40;1.30;;;36.50;1.00;;;;;;5034020;28;20622;-46
2023/03/17 10:41:55;;;;;;;2.27;1.60;;;36.80;1.00;;;;;;5034030;28;20847;-48
2023/03/17 10:44:49;;;;;;;2.10;1.33;;;36.90;1.00;;;;;;5033211;28;20482;-46
2023/03/17 10:47:25;;;;;;;1.70;1.10;;;36.90;1.00;;;;;;5033760;28;20632;-46
2023/03/17 10:49:51;;;;;;;1.90;1.47;;;37.40;1.00;;;;;;5031198;28;20536;-46
2023/03/17 10:52:29;;;;;;;1.60;1.47;;;37.60;1.00;;;;;;5031489;28;20563;-43
2023/03/17 10:54:55;;;;;;;2.20;1.30;;;37.60;1.00;;;;;;5034312;28;20426;-50
2023/03/17 10:57:21;;;;;;;3.63;1.20;;;37.50;1.00;;;;;;5033459;28;20506;-45
2023/03/17 10:59:51;;;;;;;3.80;1.57;;;37.00;1.00;;;;;;5035224;28;20709;-45
2023/03/17 11:02:23;;;;;;;2.70;1.37;;;36.70;1.00;;;;;;5032751;28;20530;-43
2023/03/17 11:04:50;;;;;;;2.00;1.30;;;36.70;1.00;;;;;;5033887;28;20512;-46
2023/03/17 11:07:26;;;;;;;5.27;1.43;;;36.40;1.00;;;;;;5014617;28;20871;-47
2023/03/17 11:09:58;;;;;;;2.83;1.50;;;36.20;1.00;;;;;;5031874;28;20503;-47
2023/03/17 11:12:27;;;;;;;2.10;1.60;;;36.50;1.00;;;;;;5032406;28;20412;-44
2023/03/17 11:15:02;;;;;;;2.53;1.43;;;36.90;1.00;;;;;;5031244;28;20848;-47
2023/03/17 11:17:38;;;;;;;2.00;1.60;;;36.90;1.00;;;;;;5032492;28;20519;-46
2023/03/17 11:20:04;;;;;;;1.97;1.00;;;37.10;1.00;;;;;;5032788;28;20424;-45
2023/03/17 11:22:41;;;;;;;2.07;1.70;;;37.10;1.00;;;;;;5033582;28;20542;-45
2023/03/17 11:25:12;;;;;;;3.13;1.40;;;36.60;1.00;;;;;;5031483;28;20166;-45
2023/03/17 11:27:51;;;;;;;2.37;1.40;;;36.20;1.00;;;;;;5032467;28;20417;-44
2023/03/17 11:30:34;;;;;;;1.70;1.40;;;36.10;1.00;;;;;;5035668;28;20504;-47
2023/03/17 11:33:20;;;;;;;2.33;1.60;;;36.20;1.00;;;;;;5035791;28;20472;-44
2023/03/17 11:35:53;;;;;;;1.93;1.67;;;36.70;1.00;;;;;;5034138;28;20448;-45
2023/03/17 11:38:27;;;;;;;4.00;1.23;;;37.40;1.00;;;;;;5016423;28;20445;-47
2023/03/17 11:41:08;;;;;;;1.50;1.40;;;38.10;1.00;;;;;;5036639;28;20420;-45
2023/03/17 11:43:46;;;;;;;3.40;1.37;;;39.00;1.00;;;;;;5033914;28;20444;-46
2023/03/17 11:46:30;;;;;;;1.90;1.70;;;40.10;1.00;;;;;;5033743;28;20742;-46
2023/03/17 11:49:21;;;;;;;2.03;1.13;;;40.90;1.00;;;;;;5032629;28;20425;-46
2023/03/17 11:52:18;;;;;;;1.40;1.13;;;40.90;1.00;;;;;;5035094;28;20754;-46
2023/03/17 11:55:22;;;;;;;1.53;1.33;;;40.70;1.00;;;;;;5026950;28;20429;-49
2023/03/17 11:57:51;;;;;;;3.30;1.40;;;40.80;1.00;;;;;;4992583;28;20441;-45
2023/03/17 12:00:22;;;;;;;1.43;1.17;;;40.80;1.00;;;;;;4976777;28;20418;-45
2023/03/17 12:02:59;;;;;;;2.00;1.40;;;40.30;1.00;;;;;;5007547;28;20476;-43
2023/03/17 12:05:26;;;;;;;1.60;1.13;;;39.40;1.00;;;;;;5034294;28;20522;-46
2023/03/17 12:07:58;;;;;;;1.60;1.20;;;38.80;1.00;;;;;;5032604;28;20520;-40
2023/03/17 12:10:40;;;;;;;2.07;1.30;;;38.30;1.00;;;;;;5033928;28;20412;-47
2023/03/17 12:13:11;;;;;;;1.80;1.57;;;38.00;1.00;;;;;;5033158;28;20421;-46
2023/03/17 12:15:46;;;;;;;1.60;1.30;;;37.80;1.00;;;;;;5035692;28;20421;-43
2023/03/17 12:18:31;;;;;;;1.93;1.40;;;38.00;1.00;;;;;;5034686;28;20408;-45
2023/03/17 12:21:22;;;;;;;1.80;1.37;;;38.30;1.00;;;;;;5034366;28;20694;-45
2023/03/17 12:24:20;;;;;;;2.90;1.53;;;38.40;1.00;;;;;;5033069;28;20673;-43
2023/03/17 12:26:59;;;;;;;1.57;1.13;;;38.20;1.00;;;;;;5024525;28;20421;-44
2023/03/17 12:29:53;;;;;;;1.77;1.20;;;37.90;1.00;;;;;;5030570;28;20484;-44
2023/03/17 12:32:19;;;;;;;1.70;1.20;;;37.40;1.00;;;;;;5030821;28;20898;-45
2023/03/17 12:34:50;;;;;;;1.73;1.20;;;37.10;1.00;;;;;;5029975;28;20894;-46
2023/03/17 12:37:17;;;;;;;1.60;1.07;;;36.70;1.00;;;;;;5030835;28;20416;-45
2023/03/17 12:40:09;;;;;;;2.10;1.53;;;36.20;1.00;;;;;;5033965;28;20508;-44
2023/03/17 12:42:40;;;;;;;1.67;1.27;;;35.80;1.00;;;;;;5034398;28;20493;-44
2023/03/17 12:45:13;;;;;;;2.37;1.60;;;35.90;1.00;;;;;;5032452;28;20401;-46
2023/03/17 12:47:48;;;;;;;1.47;1.23;;;36.00;1.00;;;;;;5031881;28;20516;-44
2023/03/17 12:50:31;;;;;;;3.20;1.40;;;35.90;1.00;;;;;;5035659;28;20504;-43
2023/03/17 12:53:13;;;;;;;2.37;1.50;;;35.50;1.00;;;;;;5034408;28;20432;-42
2023/03/17 12:55:41;;;;;;;1.83;1.40;;;35.00;1.00;;;;;;5032487;28;20508;-46
2023/03/17 12:58:27;;;;;;;1.70;1.10;;;34.50;1.00;;;;;;5032045;28;20421;-42
2023/03/17 13:01:33;;;;;;;1.50;1.13;;;33.90;1.00;;;;;;5012631;28;20439;-44
2023/03/17 13:04:20;;;;;;;1.73;1.50;;;33.50;1.00;;;;;;5032832;28;20524;-44
2023/03/17 13:07:07;;;;;;;1.57;1.20;;;33.30;99.90;;;;;;5017003;28;20437;-45
2023/03/17 13:09:36;;;;;;;1.67;1.17;;;33.20;99.90;;;;;;5032954;28;20766;-43
2023/03/17 13:12:04;;;;;;;2.23;1.33;;;33.00;99.90;;;;;;5034137;28;20439;-43
2023/03/17 13:14:45;;;;;;;1.73;1.17;;;32.90;99.90;;;;;;5034911;28;20421;-44